Impacts TAF Board INFO
FOR SITUATIONAL AWARENESS. NOT TO BE USED FOR FLIGHT PLANNING PURPOSES.
IDs:

PANC - Anchorage Intl, AK, US

Issued at 1721 UTC 26 Mar 2017
Updated at 2240 UTC 26 Mar 2017
Potential Impact None Slight Moderate High
Time2153Z 26/23Z 27/00Z 27/01Z 27/02Z 27/03Z 27/04Z 27/05Z 27/06Z 27/07Z 27/08Z 27/09Z 27/10Z 27/11Z
Type OBS PRVL PRVL PRVL PRVL PRVL PRVL PRVL PRVL PRVL PRVL PRVL PRVL PRVL
VIS 10 >6 >6 >6 >6 >6 >6 >6 >6 >6 >6 >6 >6 >6
CIG -- 80 80 80 80 80 80 80 80 80 80 80 80 80
Cover SCT BKN BKN BKN BKN BKN BKN BKN BKN BKN BKN BKN BKN BKN
FltCat VFR VFR VFR VFR VFR VFR VFR VFR VFR VFR VFR VFR VFR VFR
WX -- -- -- -- -- -- -- -- -- -- -- -- -- --
WDir 320 360 360 360 360 360 360 360 360 360 360 360 360 360
WSpd 6 9 9 9 9 9 9 9 9 9 9 9 9 9
WGst -- -- -- -- -- -- -- -- -- -- -- -- -- --

Raw TAF
PANC 261721Z 2618/2724 36009KT P6SM BKN080

Raw METAR
PANC 262153Z 32006KT 10SM FEW070 SCT200 M03/M12 A2969 RMK AO2 SLP058 T10281117 $
PANC 262053Z 03009KT 10SM FEW070 SCT200 M04/M13 A2970 RMK AO2 SLP060 T10391128 58004 $
PANC 261953Z 36006KT 10SM FEW070 SCT200 M04/M14 A2971 RMK AO2 SLP063 T10441144 $

METAR Board
Radar Display
Forecast Discussion

FOR SITUATIONAL AWARENESS. NOT TO BE USED FOR FLIGHT PLANNING PURPOSES.

Page loaded:  22:40 UTC  |   03:40 PM Pacific  |   04:40 PM Mountain  |   05:40 PM Central  |   06:40 PM Eastern

 

ADVISORIES

FORECASTS

FORECASTS

OBSERVATIONS

USER TOOLS

ABOUT US